sensor_id;sensor_type;location;lat;lon;timestamp;temperature;humidity
64468;DHT22;50853;46.836;16.820;2022-07-29T00:00:08;21.20;66.30
64468;DHT22;50853;46.836;16.820;2022-07-29T00:02:34;21.20;65.40
64468;DHT22;50853;46.836;16.820;2022-07-29T00:05:01;21.10;66.90
64468;DHT22;50853;46.836;16.820;2022-07-29T00:07:27;21.10;67.70
64468;DHT22;50853;46.836;16.820;2022-07-29T00:09:53;21.10;65.40
64468;DHT22;50853;46.836;16.820;2022-07-29T00:12:20;21.10;65.60
64468;DHT22;50853;46.836;16.820;2022-07-29T00:14:46;21.00;65.90
64468;DHT22;50853;46.836;16.820;2022-07-29T00:17:12;21.00;65.50
64468;DHT22;50853;46.836;16.820;2022-07-29T00:19:38;21.00;65.90
64468;DHT22;50853;46.836;16.820;2022-07-29T00:22:04;20.90;66.20
64468;DHT22;50853;46.836;16.820;2022-07-29T00:24:30;20.90;66.70
64468;DHT22;50853;46.836;16.820;2022-07-29T00:26:56;20.80;67.80
64468;DHT22;50853;46.836;16.820;2022-07-29T00:29:21;20.70;68.90
64468;DHT22;50853;46.836;16.820;2022-07-29T00:31:47;20.60;69.10
64468;DHT22;50853;46.836;16.820;2022-07-29T00:34:13;20.60;67.90
64468;DHT22;50853;46.836;16.820;2022-07-29T00:36:57;20.60;67.40
64468;DHT22;50853;46.836;16.820;2022-07-29T00:39:23;20.60;67.40
64468;DHT22;50853;46.836;16.820;2022-07-29T00:41:50;20.50;69.10
64468;DHT22;50853;46.836;16.820;2022-07-29T00:44:16;20.40;70.10
64468;DHT22;50853;46.836;16.820;2022-07-29T00:46:42;20.40;68.30
64468;DHT22;50853;46.836;16.820;2022-07-29T00:49:08;20.50;67.00
64468;DHT22;50853;46.836;16.820;2022-07-29T00:51:37;20.50;66.60
64468;DHT22;50853;46.836;16.820;2022-07-29T00:54:05;20.40;66.70
64468;DHT22;50853;46.836;16.820;2022-07-29T00:56:32;20.40;67.00
64468;DHT22;50853;46.836;16.820;2022-07-29T00:58:58;20.40;67.10
64468;DHT22;50853;46.836;16.820;2022-07-29T01:01:25;20.30;68.50
64468;DHT22;50853;46.836;16.820;2022-07-29T01:03:51;20.30;68.50
64468;DHT22;50853;46.836;16.820;2022-07-29T01:06:18;20.20;69.70
64468;DHT22;50853;46.836;16.820;2022-07-29T01:08:46;20.20;69.00
64468;DHT22;50853;46.836;16.820;2022-07-29T01:11:13;20.10;70.10
64468;DHT22;50853;46.836;16.820;2022-07-29T01:13:41;20.10;68.90
64468;DHT22;50853;46.836;16.820;2022-07-29T01:16:09;20.10;67.90
64468;DHT22;50853;46.836;16.820;2022-07-29T01:18:41;20.10;70.00
64468;DHT22;50853;46.836;16.820;2022-07-29T01:30:06;20.00;69.00
64468;DHT22;50853;46.836;16.820;2022-07-29T01:32:35;19.90;69.30
64468;DHT22;50853;46.836;16.820;2022-07-29T01:35:06;19.90;69.90
64468;DHT22;50853;46.836;16.820;2022-07-29T01:38:08;19.90;71.40
64468;DHT22;50853;46.836;16.820;2022-07-29T01:40:47;19.90;69.50
64468;DHT22;50853;46.836;16.820;2022-07-29T01:43:21;19.80;70.40
64468;DHT22;50853;46.836;16.820;2022-07-29T01:46:13;19.80;73.60
64468;DHT22;50853;46.836;16.820;2022-07-29T01:48:53;19.70;73.00
64468;DHT22;50853;46.836;16.820;2022-07-29T01:56:39;19.70;72.20
64468;DHT22;50853;46.836;16.820;2022-07-29T01:59:08;19.60;75.00
64468;DHT22;50853;46.836;16.820;2022-07-29T02:01:35;19.60;72.20
64468;DHT22;50853;46.836;16.820;2022-07-29T02:04:05;19.60;70.70
64468;DHT22;50853;46.836;16.820;2022-07-29T02:06:33;19.60;71.50
64468;DHT22;50853;46.836;16.820;2022-07-29T02:09:01;19.50;70.90
64468;DHT22;50853;46.836;16.820;2022-07-29T02:11:30;19.50;73.00
64468;DHT22;50853;46.836;16.820;2022-07-29T02:13:58;19.50;73.90
64468;DHT22;50853;46.836;16.820;2022-07-29T02:16:28;19.50;74.20
64468;DHT22;50853;46.836;16.820;2022-07-29T02:18:56;19.40;74.30
64468;DHT22;50853;46.836;16.820;2022-07-29T02:21:24;19.40;74.70
64468;DHT22;50853;46.836;16.820;2022-07-29T02:23:52;19.30;73.80
64468;DHT22;50853;46.836;16.820;2022-07-29T02:26:20;19.30;72.40
64468;DHT22;50853;46.836;16.820;2022-07-29T02:28:52;19.30;72.40
64468;DHT22;50853;46.836;16.820;2022-07-29T02:31:24;19.30;75.00
64468;DHT22;50853;46.836;16.820;2022-07-29T02:33:52;19.20;75.60
64468;DHT22;50853;46.836;16.820;2022-07-29T02:36:22;19.20;75.80
64468;DHT22;50853;46.836;16.820;2022-07-29T02:38:48;19.20;76.10
64468;DHT22;50853;46.836;16.820;2022-07-29T02:41:25;19.10;75.70
64468;DHT22;50853;46.836;16.820;2022-07-29T02:43:56;19.10;75.20
64468;DHT22;50853;46.836;16.820;2022-07-29T02:46:32;19.10;74.40
64468;DHT22;50853;46.836;16.820;2022-07-29T02:49:26;19.10;75.00
64468;DHT22;50853;46.836;16.820;2022-07-29T02:51:58;19.00;73.80
64468;DHT22;50853;46.836;16.820;2022-07-29T02:54:39;19.00;72.60
64468;DHT22;50853;46.836;16.820;2022-07-29T02:57:14;19.00;72.90
64468;DHT22;50853;46.836;16.820;2022-07-29T02:59:44;19.00;72.80
64468;DHT22;50853;46.836;16.820;2022-07-29T03:02:12;19.00;72.80
64468;DHT22;50853;46.836;16.820;2022-07-29T03:04:40;19.00;72.70
64468;DHT22;50853;46.836;16.820;2022-07-29T03:07:07;18.90;72.50
64468;DHT22;50853;46.836;16.820;2022-07-29T03:09:36;18.90;73.00
64468;DHT22;50853;46.836;16.820;2022-07-29T03:12:04;18.90;73.50
64468;DHT22;50853;46.836;16.820;2022-07-29T03:14:31;18.80;75.40
64468;DHT22;50853;46.836;16.820;2022-07-29T03:16:57;18.80;76.70
64468;DHT22;50853;46.836;16.820;2022-07-29T03:19:23;18.80;76.30
64468;DHT22;50853;46.836;16.820;2022-07-29T03:21:49;18.80;74.80
64468;DHT22;50853;46.836;16.820;2022-07-29T03:24:36;18.80;73.80
64468;DHT22;50853;46.836;16.820;2022-07-29T03:27:03;18.70;77.30
64468;DHT22;50853;46.836;16.820;2022-07-29T03:29:30;18.70;76.10
64468;DHT22;50853;46.836;16.820;2022-07-29T03:31:56;18.80;75.70
64468;DHT22;50853;46.836;16.820;2022-07-29T03:34:22;18.90;76.30
64468;DHT22;50853;46.836;16.820;2022-07-29T03:36:48;19.00;76.80
64468;DHT22;50853;46.836;16.820;2022-07-29T03:39:18;19.00;75.60
64468;DHT22;50853;46.836;16.820;2022-07-29T03:41:48;19.00;75.80
64468;DHT22;50853;46.836;16.820;2022-07-29T03:44:16;18.90;74.10
64468;DHT22;50853;46.836;16.820;2022-07-29T03:46:44;18.90;75.10
64468;DHT22;50853;46.836;16.820;2022-07-29T03:49:11;18.80;75.70
64468;DHT22;50853;46.836;16.820;2022-07-29T03:51:39;18.80;74.70
64468;DHT22;50853;46.836;16.820;2022-07-29T03:54:05;18.80;75.30
64468;DHT22;50853;46.836;16.820;2022-07-29T03:56:35;18.80;74.70
64468;DHT22;50853;46.836;16.820;2022-07-29T03:59:02;18.80;74.60
64468;DHT22;50853;46.836;16.820;2022-07-29T04:01:32;18.80;77.30
64468;DHT22;50853;46.836;16.820;2022-07-29T04:04:00;18.90;75.90
64468;DHT22;50853;46.836;16.820;2022-07-29T04:06:26;18.90;75.20
64468;DHT22;50853;46.836;16.820;2022-07-29T04:08:52;18.90;74.50
64468;DHT22;50853;46.836;16.820;2022-07-29T04:11:18;19.00;75.50
64468;DHT22;50853;46.836;16.820;2022-07-29T04:13:44;19.20;76.00
64468;DHT22;50853;46.836;16.820;2022-07-29T04:16:09;19.30;76.00
64468;DHT22;50853;46.836;16.820;2022-07-29T04:18:35;19.50;74.30
64468;DHT22;50853;46.836;16.820;2022-07-29T04:21:01;19.60;75.00
64468;DHT22;50853;46.836;16.820;2022-07-29T04:23:32;19.70;74.60
64468;DHT22;50853;46.836;16.820;2022-07-29T04:25:58;19.90;74.30
64468;DHT22;50853;46.836;16.820;2022-07-29T04:28:26;20.00;74.30
64468;DHT22;50853;46.836;16.820;2022-07-29T04:43:00;20.50;71.40
64468;DHT22;50853;46.836;16.820;2022-07-29T04:45:27;20.70;72.10
64468;DHT22;50853;46.836;16.820;2022-07-29T04:47:53;20.90;71.80
64468;DHT22;50853;46.836;16.820;2022-07-29T04:50:18;21.30;71.60
64468;DHT22;50853;46.836;16.820;2022-07-29T04:52:44;21.50;72.10
64468;DHT22;50853;46.836;16.820;2022-07-29T04:55:10;21.70;71.30
64468;DHT22;50853;46.836;16.820;2022-07-29T04:57:36;22.00;71.70
64468;DHT22;50853;46.836;16.820;2022-07-29T05:00:04;22.20;70.80
64468;DHT22;50853;46.836;16.820;2022-07-29T05:02:30;22.40;70.50
64468;DHT22;50853;46.836;16.820;2022-07-29T05:04:56;22.60;70.30
64468;DHT22;50853;46.836;16.820;2022-07-29T05:07:22;22.80;69.10
64468;DHT22;50853;46.836;16.820;2022-07-29T05:09:48;23.00;68.80
64468;DHT22;50853;46.836;16.820;2022-07-29T05:12:13;23.10;67.80
64468;DHT22;50853;46.836;16.820;2022-07-29T05:14:39;23.20;68.20
64468;DHT22;50853;46.836;16.820;2022-07-29T05:17:05;23.40;66.50
64468;DHT22;50853;46.836;16.820;2022-07-29T05:19:31;23.50;66.80
64468;DHT22;50853;46.836;16.820;2022-07-29T05:21:57;23.60;66.10
64468;DHT22;50853;46.836;16.820;2022-07-29T05:24:23;24.00;66.70
64468;DHT22;50853;46.836;16.820;2022-07-29T05:26:48;24.20;66.00
64468;DHT22;50853;46.836;16.820;2022-07-29T05:29:14;24.40;67.00
64468;DHT22;50853;46.836;16.820;2022-07-29T05:31:40;24.60;65.20
64468;DHT22;50853;46.836;16.820;2022-07-29T05:34:06;24.80;65.10
64468;DHT22;50853;46.836;16.820;2022-07-29T05:36:32;25.00;64.80
64468;DHT22;50853;46.836;16.820;2022-07-29T05:38:57;25.20;64.00
64468;DHT22;50853;46.836;16.820;2022-07-29T05:41:23;25.30;64.00
64468;DHT22;50853;46.836;16.820;2022-07-29T05:43:49;25.40;63.10
64468;DHT22;50853;46.836;16.820;2022-07-29T05:46:15;25.50;63.40
64468;DHT22;50853;46.836;16.820;2022-07-29T05:48:40;25.70;62.80
64468;DHT22;50853;46.836;16.820;2022-07-29T05:51:06;25.90;62.70
64468;DHT22;50853;46.836;16.820;2022-07-29T05:53:32;26.00;61.90
64468;DHT22;50853;46.836;16.820;2022-07-29T05:55:58;26.10;62.20
64468;DHT22;50853;46.836;16.820;2022-07-29T05:58:23;26.20;61.40
64468;DHT22;50853;46.836;16.820;2022-07-29T06:00:49;26.50;61.10
64468;DHT22;50853;46.836;16.820;2022-07-29T06:03:15;26.60;61.50
64468;DHT22;50853;46.836;16.820;2022-07-29T06:05:41;26.80;60.10
64468;DHT22;50853;46.836;16.820;2022-07-29T06:08:07;27.00;60.10
64468;DHT22;50853;46.836;16.820;2022-07-29T06:10:34;27.20;60.00
64468;DHT22;50853;46.836;16.820;2022-07-29T06:13:00;27.40;60.20
64468;DHT22;50853;46.836;16.820;2022-07-29T06:15:26;27.60;58.40
64468;DHT22;50853;46.836;16.820;2022-07-29T06:17:52;27.80;58.40
64468;DHT22;50853;46.836;16.820;2022-07-29T06:20:18;28.00;58.40
64468;DHT22;50853;46.836;16.820;2022-07-29T06:22:44;28.10;57.50
64468;DHT22;50853;46.836;16.820;2022-07-29T06:25:10;28.30;56.50
64468;DHT22;50853;46.836;16.820;2022-07-29T06:27:37;28.40;55.40
64468;DHT22;50853;46.836;16.820;2022-07-29T06:30:03;28.60;56.80
64468;DHT22;50853;46.836;16.820;2022-07-29T06:32:32;28.70;55.00
64468;DHT22;50853;46.836;16.820;2022-07-29T06:34:58;28.90;55.50
64468;DHT22;50853;46.836;16.820;2022-07-29T06:37:24;29.10;54.00
64468;DHT22;50853;46.836;16.820;2022-07-29T06:39:50;29.20;54.70
64468;DHT22;50853;46.836;16.820;2022-07-29T06:42:36;29.40;52.40
64468;DHT22;50853;46.836;16.820;2022-07-29T06:45:01;29.30;52.60
64468;DHT22;50853;46.836;16.820;2022-07-29T06:47:27;29.40;53.00
64468;DHT22;50853;46.836;16.820;2022-07-29T06:49:53;29.50;53.20
64468;DHT22;50853;46.836;16.820;2022-07-29T06:52:19;29.70;52.90
64468;DHT22;50853;46.836;16.820;2022-07-29T06:54:45;29.90;51.70
64468;DHT22;50853;46.836;16.820;2022-07-29T06:57:13;29.90;50.60
64468;DHT22;50853;46.836;16.820;2022-07-29T06:59:39;30.00;51.00
64468;DHT22;50853;46.836;16.820;2022-07-29T07:02:05;30.10;50.60
64468;DHT22;50853;46.836;16.820;2022-07-29T07:04:31;30.00;48.10
64468;DHT22;50853;46.836;16.820;2022-07-29T07:06:57;29.90;49.70
64468;DHT22;50853;46.836;16.820;2022-07-29T07:09:24;30.20;49.10
64468;DHT22;50853;46.836;16.820;2022-07-29T07:11:50;30.30;49.50
64468;DHT22;50853;46.836;16.820;2022-07-29T07:14:16;30.40;48.00
64468;DHT22;50853;46.836;16.820;2022-07-29T07:16:42;30.50;48.60
64468;DHT22;50853;46.836;16.820;2022-07-29T07:19:08;30.60;47.70
64468;DHT22;50853;46.836;16.820;2022-07-29T07:21:33;30.80;49.50
64468;DHT22;50853;46.836;16.820;2022-07-29T07:23:59;30.90;48.50
64468;DHT22;50853;46.836;16.820;2022-07-29T07:26:26;31.10;49.50
64468;DHT22;50853;46.836;16.820;2022-07-29T07:28:52;31.30;48.80
64468;DHT22;50853;46.836;16.820;2022-07-29T07:31:18;31.40;47.50
64468;DHT22;50853;46.836;16.820;2022-07-29T07:33:44;31.50;47.30
64468;DHT22;50853;46.836;16.820;2022-07-29T07:36:10;31.50;45.60
64468;DHT22;50853;46.836;16.820;2022-07-29T07:38:36;31.60;46.10
64468;DHT22;50853;46.836;16.820;2022-07-29T07:41:02;31.60;46.50
64468;DHT22;50853;46.836;16.820;2022-07-29T07:43:28;31.80;47.40
64468;DHT22;50853;46.836;16.820;2022-07-29T07:45:53;31.90;44.60
64468;DHT22;50853;46.836;16.820;2022-07-29T07:48:19;31.80;44.90
64468;DHT22;50853;46.836;16.820;2022-07-29T07:50:45;32.00;44.00
64468;DHT22;50853;46.836;16.820;2022-07-29T07:53:11;32.20;45.30
64468;DHT22;50853;46.836;16.820;2022-07-29T07:55:41;32.30;45.30
64468;DHT22;50853;46.836;16.820;2022-07-29T07:58:08;32.50;44.30
64468;DHT22;50853;46.836;16.820;2022-07-29T08:00:34;32.30;43.20
64468;DHT22;50853;46.836;16.820;2022-07-29T08:03:00;32.50;44.00
64468;DHT22;50853;46.836;16.820;2022-07-29T08:05:25;32.60;42.60
64468;DHT22;50853;46.836;16.820;2022-07-29T08:07:51;32.80;43.40
64468;DHT22;50853;46.836;16.820;2022-07-29T08:10:18;33.00;41.10
64468;DHT22;50853;46.836;16.820;2022-07-29T08:13:08;33.00;42.30
64468;DHT22;50853;46.836;16.820;2022-07-29T08:15:35;33.20;41.10
64468;DHT22;50853;46.836;16.820;2022-07-29T08:18:01;33.10;42.70
64468;DHT22;50853;46.836;16.820;2022-07-29T08:20:27;33.30;41.60
64468;DHT22;50853;46.836;16.820;2022-07-29T08:22:53;33.70;42.90
64468;DHT22;50853;46.836;16.820;2022-07-29T08:25:19;33.70;39.90
64468;DHT22;50853;46.836;16.820;2022-07-29T08:27:49;33.80;42.60
64468;DHT22;50853;46.836;16.820;2022-07-29T08:30:15;33.90;41.80
64468;DHT22;50853;46.836;16.820;2022-07-29T08:32:41;34.10;40.20
64468;DHT22;50853;46.836;16.820;2022-07-29T08:35:07;34.20;38.80
64468;DHT22;50853;46.836;16.820;2022-07-29T08:37:33;34.20;37.80
64468;DHT22;50853;46.836;16.820;2022-07-29T08:39:58;34.40;41.70
64468;DHT22;50853;46.836;16.820;2022-07-29T08:42:24;34.60;42.00
64468;DHT22;50853;46.836;16.820;2022-07-29T08:44:50;34.80;40.70
64468;DHT22;50853;46.836;16.820;2022-07-29T08:47:16;34.90;40.40
64468;DHT22;50853;46.836;16.820;2022-07-29T08:49:43;34.50;40.00
64468;DHT22;50853;46.836;16.820;2022-07-29T08:52:11;34.80;40.00
64468;DHT22;50853;46.836;16.820;2022-07-29T08:54:38;34.80;38.60
64468;DHT22;50853;46.836;16.820;2022-07-29T08:57:05;35.00;38.90
64468;DHT22;50853;46.836;16.820;2022-07-29T08:59:30;35.30;37.80
64468;DHT22;50853;46.836;16.820;2022-07-29T09:01:58;35.30;36.40
64468;DHT22;50853;46.836;16.820;2022-07-29T09:04:30;35.20;37.20
64468;DHT22;50853;46.836;16.820;2022-07-29T09:07:02;35.20;36.80
64468;DHT22;50853;46.836;16.820;2022-07-29T09:09:28;35.50;35.80
64468;DHT22;50853;46.836;16.820;2022-07-29T09:11:54;35.40;36.90
64468;DHT22;50853;46.836;16.820;2022-07-29T09:14:20;35.30;36.90
64468;DHT22;50853;46.836;16.820;2022-07-29T09:16:54;35.50;39.10
64468;DHT22;50853;46.836;16.820;2022-07-29T09:21:47;35.80;36.20
64468;DHT22;50853;46.836;16.820;2022-07-29T09:24:46;35.90;36.10
64468;DHT22;50853;46.836;16.820;2022-07-29T09:27:22;36.10;37.60
64468;DHT22;50853;46.836;16.820;2022-07-29T09:30:04;35.70;35.00
64468;DHT22;50853;46.836;16.820;2022-07-29T09:32:32;35.60;36.30
64468;DHT22;50853;46.836;16.820;2022-07-29T09:35:21;36.00;35.90
64468;DHT22;50853;46.836;16.820;2022-07-29T09:37:47;36.40;37.00
64468;DHT22;50853;46.836;16.820;2022-07-29T09:40:22;36.60;36.60
64468;DHT22;50853;46.836;16.820;2022-07-29T09:42:48;36.70;34.40
64468;DHT22;50853;46.836;16.820;2022-07-29T09:45:33;36.50;35.40
64468;DHT22;50853;46.836;16.820;2022-07-29T09:48:22;36.60;36.00
64468;DHT22;50853;46.836;16.820;2022-07-29T09:50:48;36.90;35.40
64468;DHT22;50853;46.836;16.820;2022-07-29T09:53:34;36.50;32.40
64468;DHT22;50853;46.836;16.820;2022-07-29T09:56:01;36.10;34.80
64468;DHT22;50853;46.836;16.820;2022-07-29T09:58:28;36.30;36.40
64468;DHT22;50853;46.836;16.820;2022-07-29T10:00:55;36.90;34.40
64468;DHT22;50853;46.836;16.820;2022-07-29T10:03:21;37.10;34.00
64468;DHT22;50853;46.836;16.820;2022-07-29T10:06:04;36.80;33.50
64468;DHT22;50853;46.836;16.820;2022-07-29T10:08:31;37.00;34.90
64468;DHT22;50853;46.836;16.820;2022-07-29T10:13:42;37.20;33.40
64468;DHT22;50853;46.836;16.820;2022-07-29T10:16:09;37.10;33.80
64468;DHT22;50853;46.836;16.820;2022-07-29T10:18:38;37.10;33.30
64468;DHT22;50853;46.836;16.820;2022-07-29T10:21:04;37.60;34.00
64468;DHT22;50853;46.836;16.820;2022-07-29T10:23:30;37.60;32.60
64468;DHT22;50853;46.836;16.820;2022-07-29T10:25:56;37.80;31.80
64468;DHT22;50853;46.836;16.820;2022-07-29T10:28:22;37.40;32.00
64468;DHT22;50853;46.836;16.820;2022-07-29T10:30:50;37.10;33.30
64468;DHT22;50853;46.836;16.820;2022-07-29T10:36:05;37.50;32.80
64468;DHT22;50853;46.836;16.820;2022-07-29T10:38:37;37.40;34.20
64468;DHT22;50853;46.836;16.820;2022-07-29T10:46:46;37.20;33.60
64468;DHT22;50853;46.836;16.820;2022-07-29T10:49:19;37.00;32.70
64468;DHT22;50853;46.836;16.820;2022-07-29T10:57:29;37.20;31.60
64468;DHT22;50853;46.836;16.820;2022-07-29T11:05:05;37.60;33.80
64468;DHT22;50853;46.836;16.820;2022-07-29T11:07:33;37.90;34.50
64468;DHT22;50853;46.836;16.820;2022-07-29T11:15:12;38.30;33.60
64468;DHT22;50853;46.836;16.820;2022-07-29T11:20:44;37.20;32.00
64468;DHT22;50853;46.836;16.820;2022-07-29T11:23:31;37.10;33.20
64468;DHT22;50853;46.836;16.820;2022-07-29T11:26:19;36.80;34.80
64468;DHT22;50853;46.836;16.820;2022-07-29T11:31:38;37.40;34.10
64468;DHT22;50853;46.836;16.820;2022-07-29T11:34:18;37.10;33.10
64468;DHT22;50853;46.836;16.820;2022-07-29T11:44:56;36.10;34.00
64468;DHT22;50853;46.836;16.820;2022-07-29T11:47:23;35.90;32.30
64468;DHT22;50853;46.836;16.820;2022-07-29T11:49:50;36.10;34.10
64468;DHT22;50853;46.836;16.820;2022-07-29T11:52:19;35.40;33.50
64468;DHT22;50853;46.836;16.820;2022-07-29T11:54:48;35.60;36.30
64468;DHT22;50853;46.836;16.820;2022-07-29T11:57:20;35.80;35.20
64468;DHT22;50853;46.836;16.820;2022-07-29T11:59:47;36.00;36.00
64468;DHT22;50853;46.836;16.820;2022-07-29T12:02:14;35.70;35.80
64468;DHT22;50853;46.836;16.820;2022-07-29T12:04:54;35.70;35.00
64468;DHT22;50853;46.836;16.820;2022-07-29T12:07:30;36.00;36.90
64468;DHT22;50853;46.836;16.820;2022-07-29T12:09:56;36.10;35.60
64468;DHT22;50853;46.836;16.820;2022-07-29T12:12:22;36.30;37.10
64468;DHT22;50853;46.836;16.820;2022-07-29T12:14:49;36.10;34.10
64468;DHT22;50853;46.836;16.820;2022-07-29T12:17:32;36.10;33.20
64468;DHT22;50853;46.836;16.820;2022-07-29T12:20:01;35.80;34.10
64468;DHT22;50853;46.836;16.820;2022-07-29T12:24:55;35.40;32.60
64468;DHT22;50853;46.836;16.820;2022-07-29T12:27:22;35.80;35.00
64468;DHT22;50853;46.836;16.820;2022-07-29T12:29:59;36.10;34.60
64468;DHT22;50853;46.836;16.820;2022-07-29T12:32:58;36.10;33.90
64468;DHT22;50853;46.836;16.820;2022-07-29T12:35:24;36.30;36.10
64468;DHT22;50853;46.836;16.820;2022-07-29T12:37:51;36.40;34.70
64468;DHT22;50853;46.836;16.820;2022-07-29T12:40:18;36.50;34.10
64468;DHT22;50853;46.836;16.820;2022-07-29T12:43:05;36.50;34.50
64468;DHT22;50853;46.836;16.820;2022-07-29T12:45:31;36.50;35.10
64468;DHT22;50853;46.836;16.820;2022-07-29T12:47:57;36.30;34.80
64468;DHT22;50853;46.836;16.820;2022-07-29T12:50:23;36.40;35.20
64468;DHT22;50853;46.836;16.820;2022-07-29T12:52:49;36.50;34.60
64468;DHT22;50853;46.836;16.820;2022-07-29T12:55:15;36.70;34.00
64468;DHT22;50853;46.836;16.820;2022-07-29T12:57:49;36.20;31.20
64468;DHT22;50853;46.836;16.820;2022-07-29T13:00:23;36.10;31.50
64468;DHT22;50853;46.836;16.820;2022-07-29T13:02:57;36.10;33.20
64468;DHT22;50853;46.836;16.820;2022-07-29T13:05:24;36.00;31.90
64468;DHT22;50853;46.836;16.820;2022-07-29T13:08:14;36.20;33.80
64468;DHT22;50853;46.836;16.820;2022-07-29T13:10:40;36.50;32.10
64468;DHT22;50853;46.836;16.820;2022-07-29T13:13:07;36.50;34.20
64468;DHT22;50853;46.836;16.820;2022-07-29T13:15:40;36.20;35.20
64468;DHT22;50853;46.836;16.820;2022-07-29T13:18:27;36.70;35.40
64468;DHT22;50853;46.836;16.820;2022-07-29T13:20:52;36.90;34.30
64468;DHT22;50853;46.836;16.820;2022-07-29T13:23:19;37.00;33.00
64468;DHT22;50853;46.836;16.820;2022-07-29T13:25:44;36.60;33.90
64468;DHT22;50853;46.836;16.820;2022-07-29T13:28:10;36.70;34.30
64468;DHT22;50853;46.836;16.820;2022-07-29T13:30:37;36.80;34.20
64468;DHT22;50853;46.836;16.820;2022-07-29T13:33:03;36.90;32.90
64468;DHT22;50853;46.836;16.820;2022-07-29T13:35:29;36.90;32.80
64468;DHT22;50853;46.836;16.820;2022-07-29T13:37:55;36.70;33.00
64468;DHT22;50853;46.836;16.820;2022-07-29T13:40:21;36.90;33.40
64468;DHT22;50853;46.836;16.820;2022-07-29T13:42:47;36.60;34.20
64468;DHT22;50853;46.836;16.820;2022-07-29T13:45:12;36.50;33.00
64468;DHT22;50853;46.836;16.820;2022-07-29T13:47:38;36.80;32.70
64468;DHT22;50853;46.836;16.820;2022-07-29T13:50:05;36.90;33.40
64468;DHT22;50853;46.836;16.820;2022-07-29T13:52:32;37.00;34.00
64468;DHT22;50853;46.836;16.820;2022-07-29T13:54:58;36.70;33.20
64468;DHT22;50853;46.836;16.820;2022-07-29T13:57:24;36.60;33.40
64468;DHT22;50853;46.836;16.820;2022-07-29T13:59:49;36.80;33.60
64468;DHT22;50853;46.836;16.820;2022-07-29T14:02:16;36.70;32.80
64468;DHT22;50853;46.836;16.820;2022-07-29T14:04:43;36.60;31.20
64468;DHT22;50853;46.836;16.820;2022-07-29T14:07:08;36.20;31.00
64468;DHT22;50853;46.836;16.820;2022-07-29T14:09:35;36.20;30.90
64468;DHT22;50853;46.836;16.820;2022-07-29T14:12:01;36.10;32.50
64468;DHT22;50853;46.836;16.820;2022-07-29T14:14:28;36.10;32.00
64468;DHT22;50853;46.836;16.820;2022-07-29T14:16:54;35.90;32.30
64468;DHT22;50853;46.836;16.820;2022-07-29T14:19:20;35.80;33.30
64468;DHT22;50853;46.836;16.820;2022-07-29T14:21:46;35.60;32.50
64468;DHT22;50853;46.836;16.820;2022-07-29T14:24:12;35.70;33.60
64468;DHT22;50853;46.836;16.820;2022-07-29T14:26:37;35.20;33.60
64468;DHT22;50853;46.836;16.820;2022-07-29T14:29:03;35.00;32.60
64468;DHT22;50853;46.836;16.820;2022-07-29T14:31:29;34.90;32.60
64468;DHT22;50853;46.836;16.820;2022-07-29T14:33:55;34.80;34.60
64468;DHT22;50853;46.836;16.820;2022-07-29T14:36:21;34.70;33.40
64468;DHT22;50853;46.836;16.820;2022-07-29T14:38:46;34.50;33.60
64468;DHT22;50853;46.836;16.820;2022-07-29T14:41:12;34.40;35.40
64468;DHT22;50853;46.836;16.820;2022-07-29T14:43:38;34.40;36.10
64468;DHT22;50853;46.836;16.820;2022-07-29T14:46:04;34.40;35.30
64468;DHT22;50853;46.836;16.820;2022-07-29T14:48:30;34.10;34.30
64468;DHT22;50853;46.836;16.820;2022-07-29T14:50:55;34.20;36.10
64468;DHT22;50853;46.836;16.820;2022-07-29T14:53:22;34.00;36.10
64468;DHT22;50853;46.836;16.820;2022-07-29T14:55:48;33.90;36.20
64468;DHT22;50853;46.836;16.820;2022-07-29T14:58:13;33.70;35.40
64468;DHT22;50853;46.836;16.820;2022-07-29T15:00:39;33.60;36.10
64468;DHT22;50853;46.836;16.820;2022-07-29T15:03:05;33.50;35.40
64468;DHT22;50853;46.836;16.820;2022-07-29T15:05:31;33.50;35.00
64468;DHT22;50853;46.836;16.820;2022-07-29T15:07:58;33.60;36.10
64468;DHT22;50853;46.836;16.820;2022-07-29T15:10:24;33.40;34.20
64468;DHT22;50853;46.836;16.820;2022-07-29T15:12:53;33.40;35.00
64468;DHT22;50853;46.836;16.820;2022-07-29T15:15:20;33.40;36.20
64468;DHT22;50853;46.836;16.820;2022-07-29T15:17:47;33.60;36.30
64468;DHT22;50853;46.836;16.820;2022-07-29T15:20:13;33.50;36.80
64468;DHT22;50853;46.836;16.820;2022-07-29T15:22:40;33.30;36.00
64468;DHT22;50853;46.836;16.820;2022-07-29T15:25:08;33.50;36.10
64468;DHT22;50853;46.836;16.820;2022-07-29T15:27:33;33.20;37.50
64468;DHT22;50853;46.836;16.820;2022-07-29T15:29:59;33.20;37.80
64468;DHT22;50853;46.836;16.820;2022-07-29T15:32:25;33.10;37.90
64468;DHT22;50853;46.836;16.820;2022-07-29T15:34:50;33.00;37.70
64468;DHT22;50853;46.836;16.820;2022-07-29T15:37:16;33.10;37.80
64468;DHT22;50853;46.836;16.820;2022-07-29T15:39:42;32.90;37.30
64468;DHT22;50853;46.836;16.820;2022-07-29T15:42:08;32.90;37.00
64468;DHT22;50853;46.836;16.820;2022-07-29T15:44:34;32.90;36.50
64468;DHT22;50853;46.836;16.820;2022-07-29T15:46:59;32.90;35.50
64468;DHT22;50853;46.836;16.820;2022-07-29T15:49:48;33.00;35.40
64468;DHT22;50853;46.836;16.820;2022-07-29T15:52:18;32.90;35.70
64468;DHT22;50853;46.836;16.820;2022-07-29T15:54:44;32.70;35.70
64468;DHT22;50853;46.836;16.820;2022-07-29T15:57:10;32.60;35.80
64468;DHT22;50853;46.836;16.820;2022-07-29T15:59:36;32.40;35.40
64468;DHT22;50853;46.836;16.820;2022-07-29T16:02:02;32.40;36.10
64468;DHT22;50853;46.836;16.820;2022-07-29T16:04:28;32.40;36.40
64468;DHT22;50853;46.836;16.820;2022-07-29T16:06:54;32.20;36.20
64468;DHT22;50853;46.836;16.820;2022-07-29T16:09:20;32.20;36.10
64468;DHT22;50853;46.836;16.820;2022-07-29T16:11:46;32.20;35.70
64468;DHT22;50853;46.836;16.820;2022-07-29T16:14:15;32.20;35.70
64468;DHT22;50853;46.836;16.820;2022-07-29T16:16:41;32.20;35.30
64468;DHT22;50853;46.836;16.820;2022-07-29T16:19:07;32.10;35.20
64468;DHT22;50853;46.836;16.820;2022-07-29T16:21:35;32.00;35.70
64468;DHT22;50853;46.836;16.820;2022-07-29T16:24:03;31.90;36.80
64468;DHT22;50853;46.836;16.820;2022-07-29T16:26:29;31.80;36.80
64468;DHT22;50853;46.836;16.820;2022-07-29T16:28:55;31.80;36.10
64468;DHT22;50853;46.836;16.820;2022-07-29T16:31:21;31.70;37.00
64468;DHT22;50853;46.836;16.820;2022-07-29T16:33:49;31.60;39.40